This is the latest recevied weather packets stored in our database for station/object VK1KCM-5. If no packets are shown the sender has not sent any weather packets the latest 10 day(s).
| Time | Temp. | Humidity | Pressure | Rain* | Wind** | Luminosity | Snow |
|---|---|---|---|---|---|---|---|
| 1787989928 | 13.89° C | 72% | 1026.7 hPa | 0 mm | - | - | - |
| 1787989631 | 14.44° C | 71% | 1026.7 hPa | 0 mm | - | - | - |
| 1787989334 | 14.44° C | 70% | 1026.5 hPa | 0 mm | - | - | - |
| 1787989083 | 15° C | 69% | 1026.6 hPa | 0 mm | - | - | - |
| 1787988818 | 15° C | 70% | 1026.4 hPa | 0 mm | - | - | - |
| 1787988558 | 15° C | 70% | 1026.4 hPa | 0 mm | - | - | - |
| 1787988291 | 15.56° C | 69% | 1026.3 hPa | 0 mm | - | - | - |
| 1787988028 | 16.11° C | 67% | 1026.2 hPa | 0 mm | - | - | - |
| 1787987768 | 16.11° C | 67% | 1026.2 hPa | 0 mm | - | - | - |
| 1787987512 | 16.67° C | 66% | 1026 hPa | 0 mm | - | - | - |
| 1787987238 | 17.22° C | 63% | 1025.6 hPa | 0 mm | - | - | - |
| 1787986968 | 17.22° C | 63% | 1025.7 hPa | 0 mm | - | - | - |
| 1787986711 | 17.22° C | 64% | 1025.7 hPa | 0 mm | - | - | - |
| 1787986418 | 17.22° C | 63% | 1025.5 hPa | 0 mm | - | - | - |
| 1787986163 | 16.67° C | 65% | 1025.6 hPa | 0 mm | - | - | - |
| 1787985898 | 17.22° C | 63% | 1025.5 hPa | 0 mm | - | - | - |
| 1787985648 | 17.22° C | 63% | 1025.5 hPa | 0 mm | - | - | - |
| 1787985401 | 17.22° C | 63% | 1025.6 hPa | 0 mm | - | - | - |
| 1787985148 | 17.22° C | 63% | 1025.4 hPa | 0 mm | - | - | - |
| 1787984871 | 17.78° C | 62% | 1025.3 hPa | 0 mm | - | - | - |
| 1787984608 | 17.22° C | 61% | 1025.6 hPa | 0 mm | - | - | - |
| 1787984361 | 17.78° C | 60% | 1025.2 hPa | 0 mm | - | - | - |
| 1787984078 | 17.78° C | 59% | 1025.2 hPa | 0 mm | - | - | - |
| 1787983793 | 18.33° C | 57% | 1025.3 hPa | 0 mm | - | - | - |
| 1787983518 | 18.33° C | 56% | 1025.4 hPa | 0 mm | - | - | - |
* Rain latest hour (hover to see other rain measurements)
** Current wind speed in m/s (hover to see current wind gust speed)